createdAt,value
2022-09-20T00:00:47.340Z,97734.69
2022-09-20T00:02:48.655Z,97738.09
2022-09-20T00:04:49.974Z,97747.38
2022-09-20T00:06:51.336Z,97742.16
2022-09-20T00:08:52.917Z,97741.31
2022-09-20T00:10:55.231Z,97739.59
2022-09-20T00:12:56.512Z,97740.44
2022-09-20T00:14:58.038Z,97749.00
2022-09-20T00:16:59.400Z,97743.06
2022-09-20T00:19:00.830Z,97751.66
2022-09-20T00:21:02.099Z,97752.53
2022-09-20T00:23:03.533Z,97748.34
2022-09-20T00:25:04.859Z,97744.16
2022-09-20T00:27:06.351Z,97738.28
2022-09-20T00:29:07.943Z,97752.72
2022-09-20T00:31:09.236Z,97756.91
2022-09-20T00:33:10.502Z,97745.81
2022-09-20T00:35:11.793Z,97745.72
2022-09-20T00:37:13.071Z,97755.94
2022-09-20T00:39:14.425Z,97754.06
2022-09-20T00:41:15.677Z,97757.38
2022-09-20T00:43:17.001Z,97762.50
2022-09-20T00:45:18.267Z,97773.59
2022-09-20T00:47:19.597Z,97779.63
2022-09-20T00:49:20.867Z,97777.88
2022-09-20T00:51:22.160Z,97767.72
2022-09-20T00:53:24.655Z,97763.47
2022-09-20T00:55:25.955Z,97761.75
2022-09-20T00:57:27.239Z,97760.13
2022-09-20T00:59:29.083Z,97761.78
2022-09-20T01:01:31.047Z,97762.69
2022-09-20T01:03:33.254Z,97761.84
2022-09-20T01:05:34.567Z,97765.38
2022-09-20T01:07:35.837Z,97768.84
2022-09-20T01:09:37.122Z,97779.09
2022-09-20T01:11:38.457Z,97772.28
2022-09-20T01:13:39.730Z,97785.84
2022-09-20T01:15:41.006Z,97780.66
2022-09-20T01:17:42.982Z,97787.41
2022-09-20T01:19:44.345Z,97786.50
2022-09-20T01:21:46.662Z,97777.13
2022-09-20T01:23:48.143Z,97784.84
2022-09-20T01:25:49.413Z,97782.25
2022-09-20T01:27:50.924Z,97787.22
2022-09-20T01:29:52.184Z,97791.47
2022-09-20T01:31:53.545Z,97788.91
2022-09-20T01:33:54.910Z,97789.78
2022-09-20T01:35:56.237Z,97786.34
2022-09-20T01:37:57.495Z,97777.06
2022-09-20T01:39:58.860Z,97771.97
2022-09-20T01:42:00.230Z,97780.53
2022-09-20T01:44:01.488Z,97778.91
2022-09-20T01:46:02.877Z,97782.31
2022-09-20T01:48:04.205Z,97776.34
2022-09-20T01:50:05.495Z,97788.19
2022-09-20T01:52:06.781Z,97779.69
2022-09-20T01:54:08.097Z,97782.13
2022-09-20T01:56:09.383Z,97784.47
2022-09-20T01:58:10.707Z,97780.88
2022-09-20T02:00:12.044Z,97779.16
2022-09-20T02:02:13.349Z,97780.88
2022-09-20T02:04:14.682Z,97780.69
2022-09-20T02:06:16.018Z,97778.13
2022-09-20T02:08:17.345Z,97774.75
2022-09-20T02:10:18.655Z,97772.97
2022-09-20T02:12:19.935Z,97779.69
2022-09-20T02:14:21.209Z,97576.94
2022-09-20T02:16:22.615Z,97777.16
2022-09-20T02:18:23.962Z,97779.69
2022-09-20T02:20:25.238Z,97777.13
2022-09-20T02:22:26.510Z,97784.00
2022-09-20T02:24:27.794Z,97784.09
2022-09-20T02:26:29.177Z,97791.75
2022-09-20T02:28:30.449Z,97790.91
2022-09-20T02:30:31.755Z,97785.69
2022-09-20T02:32:33.026Z,97779.69
2022-09-20T02:34:34.446Z,97784.84
2022-09-20T02:36:35.737Z,97788.94
2022-09-20T02:38:37.717Z,97793.97
2022-09-20T02:40:39.053Z,97790.50
2022-09-20T02:42:40.402Z,97791.28
2022-09-20T02:44:41.721Z,97792.38
2022-09-20T02:46:42.994Z,97797.81
2022-09-20T02:48:44.273Z,97799.72
2022-09-20T02:50:45.562Z,97791.22
2022-09-20T02:52:46.839Z,97787.22
2022-09-20T02:54:48.163Z,97797.63
2022-09-20T02:56:49.438Z,97788.59
2022-09-20T02:58:50.719Z,97787.22
2022-09-20T03:00:53.627Z,97800.03
2022-09-20T03:02:54.905Z,97795.84
2022-09-20T03:04:56.996Z,97793.44
2022-09-20T03:06:58.270Z,97796.09
2022-09-20T03:08:59.586Z,97800.38
2022-09-20T03:11:00.918Z,97802.13
2022-09-20T03:13:02.247Z,97802.19
2022-09-20T03:15:03.530Z,97798.75
2022-09-20T03:17:04.829Z,97801.31
2022-09-20T03:19:06.803Z,97802.16
2022-09-20T03:21:08.446Z,97799.66
2022-09-20T03:23:09.742Z,97796.19
2022-09-20T03:25:11.066Z,97799.59
2022-09-20T03:27:12.358Z,97808.09
2022-09-20T03:29:13.655Z,97803.78
2022-09-20T03:31:15.161Z,97801.22
2022-09-20T03:33:16.817Z,97798.59
2022-09-20T03:35:18.070Z,97813.81
2022-09-20T03:37:19.341Z,97805.28
2022-09-20T03:39:20.601Z,97800.16
2022-09-20T03:41:23.241Z,97807.75
2022-09-20T03:43:24.538Z,97809.47
2022-09-20T03:45:26.261Z,97806.09
2022-09-20T03:47:27.608Z,97801.84
2022-09-20T03:49:28.902Z,97801.06
2022-09-20T03:51:33.892Z,97801.94
2022-09-20T03:53:35.886Z,97804.56
2022-09-20T03:55:37.158Z,97798.63
2022-09-20T03:57:39.314Z,97800.38
2022-09-20T03:59:40.573Z,97803.78
2022-09-20T04:01:41.884Z,97808.88
2022-09-20T04:03:44.662Z,97804.59
2022-09-20T04:05:46.750Z,97807.13
2022-09-20T04:07:48.012Z,97803.78
2022-09-20T04:09:49.281Z,97802.16
2022-09-20T04:11:50.887Z,97804.81
2022-09-20T04:13:52.285Z,97801.47
2022-09-20T04:15:53.601Z,97809.19
2022-09-20T04:17:54.869Z,97810.09
2022-09-20T04:19:56.219Z,97803.28
2022-09-20T04:21:57.564Z,97812.66
2022-09-20T04:23:58.866Z,97799.91
2022-09-20T04:26:00.158Z,97805.78
2022-09-20T04:28:01.471Z,97814.22
2022-09-20T04:30:04.363Z,97810.78
2022-09-20T04:32:05.734Z,97817.50
2022-09-20T04:34:07.093Z,97818.34
2022-09-20T04:36:27.229Z,97814.03
2022-09-20T04:38:28.528Z,97814.00
2022-09-20T04:40:30.097Z,97818.22
2022-09-20T04:42:31.482Z,97818.22
2022-09-20T04:44:32.759Z,97813.13
2022-09-20T04:46:35.677Z,97820.78
2022-09-20T04:48:38.105Z,97825.09
2022-09-20T04:50:39.599Z,97828.53
2022-09-20T04:52:40.872Z,97823.50
2022-09-20T04:54:42.198Z,97831.16
2022-09-20T04:56:43.473Z,97829.50
2022-09-20T04:58:44.844Z,97825.28
2022-09-20T05:00:46.189Z,97836.28
2022-09-20T05:02:47.502Z,97833.72
2022-09-20T05:04:49.066Z,97831.94
2022-09-20T05:06:50.878Z,97842.09
2022-09-20T05:08:56.643Z,97841.19
2022-09-20T05:10:59.974Z,97840.28
2022-09-20T05:13:04.231Z,97841.13
2022-09-20T05:15:05.513Z,97843.72
2022-09-20T05:17:07.117Z,97853.00
2022-09-20T05:19:08.546Z,97842.81
2022-09-20T05:21:09.818Z,97852.16
2022-09-20T05:23:11.107Z,97852.16
2022-09-20T05:25:12.378Z,97851.28
2022-09-20T05:27:13.869Z,97855.56
2022-09-20T05:29:15.154Z,97853.06
2022-09-20T05:31:16.425Z,97852.22
2022-09-20T05:33:18.267Z,97858.25
2022-09-20T05:35:19.529Z,97855.69
2022-09-20T05:37:20.807Z,97860.84
2022-09-20T05:39:22.073Z,97865.13
2022-09-20T05:41:23.947Z,97860.91
2022-09-20T05:43:26.399Z,97860.03
2022-09-20T05:45:27.850Z,97865.94
2022-09-20T05:47:29.206Z,97871.84
2022-09-20T05:49:30.498Z,97876.03
2022-09-20T05:51:31.806Z,97876.03
2022-09-20T05:53:33.543Z,97874.34
2022-09-20T05:55:34.818Z,97876.88
2022-09-20T05:57:36.095Z,97882.81
2022-09-20T05:59:37.374Z,97881.91
2022-09-20T06:01:38.645Z,97881.13
2022-09-20T06:03:39.927Z,97885.34
2022-09-20T06:05:42.713Z,97881.16
2022-09-20T06:07:46.059Z,97887.16
2022-09-20T06:09:47.348Z,97879.56
2022-09-20T06:11:48.660Z,97884.72
2022-09-20T06:13:49.994Z,97883.06
2022-09-20T06:15:51.370Z,97886.47
2022-09-20T06:17:52.649Z,97894.97
2022-09-20T06:19:53.951Z,97888.16
2022-09-20T06:21:55.246Z,97893.25
2022-09-20T06:23:56.523Z,97890.63
2022-09-20T06:25:57.801Z,97896.56
2022-09-20T06:27:59.067Z,97892.25
2022-09-20T06:30:00.902Z,97894.75
2022-09-20T06:32:02.287Z,97904.91
2022-09-20T06:34:03.607Z,97899.81
2022-09-20T06:36:24.838Z,97892.16
2022-09-20T06:38:44.979Z,97902.38
2022-09-20T06:41:04.922Z,97903.25
2022-09-20T06:43:06.202Z,97898.19
2022-09-20T06:45:07.787Z,97907.56
2022-09-20T06:47:09.951Z,97908.47
2022-09-20T06:49:11.217Z,97906.81
2022-09-20T06:51:12.533Z,97906.84
2022-09-20T06:53:13.897Z,97911.13
2022-09-20T06:55:15.525Z,97911.06
2022-09-20T06:57:16.858Z,97908.47
2022-09-20T06:59:18.129Z,97911.84
2022-09-20T07:01:29.357Z,97921.16
2022-09-20T07:03:32.925Z,97913.50
2022-09-20T07:05:34.369Z,97918.56
2022-09-20T07:07:35.685Z,97917.66
2022-09-20T07:09:36.975Z,97930.44
2022-09-20T07:11:38.234Z,97934.63
2022-09-20T07:13:39.550Z,97936.31
2022-09-20T07:15:40.885Z,97926.97
2022-09-20T07:17:42.327Z,97929.47
2022-09-20T07:19:43.765Z,97928.63
2022-09-20T07:21:45.071Z,97938.03
2022-09-20T07:23:46.331Z,97938.94
2022-09-20T07:25:47.676Z,97935.50
2022-09-20T07:27:49.725Z,97941.50
2022-09-20T07:29:50.986Z,97943.31
2022-09-20T07:31:53.185Z,97940.78
2022-09-20T07:33:54.535Z,97949.28
2022-09-20T07:35:55.846Z,97953.56
2022-09-20T07:37:57.168Z,97949.28
2022-09-20T07:39:58.482Z,97950.13
2022-09-20T07:41:59.886Z,97962.81
2022-09-20T07:44:20.861Z,97959.38
2022-09-20T07:46:24.276Z,97968.72
2022-09-20T07:48:25.953Z,97977.16
2022-09-20T07:50:27.251Z,97972.94
2022-09-20T07:52:28.675Z,97969.56
2022-09-20T07:54:30.993Z,97971.28
2022-09-20T07:56:32.390Z,97975.56
2022-09-20T07:58:34.045Z,97981.56
2022-09-20T08:00:35.334Z,97985.00
2022-09-20T08:02:36.680Z,97979.97
2022-09-20T08:04:38.083Z,97990.97
2022-09-20T08:06:39.353Z,97985.88
2022-09-20T08:08:40.757Z,97993.47
2022-09-20T08:10:42.130Z,97997.72
2022-09-20T08:15:08.462Z,97990.94
2022-09-20T08:17:12.451Z,97989.28
2022-09-20T08:19:13.789Z,97987.63
2022-09-20T08:21:15.114Z,97991.88
2022-09-20T08:23:24.260Z,97995.34
2022-09-20T08:25:25.653Z,97992.84
2022-09-20T08:27:27.030Z,97986.94
2022-09-20T08:29:28.296Z,97994.63
2022-09-20T08:31:32.390Z,97997.22
2022-09-20T08:33:33.913Z,98005.78
2022-09-20T08:35:38.122Z,98002.44
2022-09-20T08:37:40.055Z,98003.28
2022-09-20T08:39:57.785Z,97996.53
2022-09-20T08:41:59.411Z,97996.53
2022-09-20T08:44:00.735Z,97994.88
2022-09-20T08:46:05.446Z,97996.53
2022-09-20T08:48:07.236Z,97990.53
2022-09-20T08:50:11.150Z,97986.28
2022-09-20T08:52:13.047Z,97992.19
2022-09-20T08:54:16.045Z,97990.44
2022-09-20T08:56:17.393Z,97994.63
2022-09-20T08:58:19.422Z,97992.03
2022-09-20T09:00:20.705Z,97995.41
2022-09-20T09:02:22.658Z,97991.94
2022-09-20T09:04:24.315Z,97989.41
2022-09-20T09:06:25.599Z,97992.84
2022-09-20T09:08:27.078Z,97994.53
2022-09-20T09:10:28.402Z,97988.66
2022-09-20T09:12:29.722Z,97993.75
2022-09-20T09:14:49.435Z,97996.34
2022-09-20T09:16:50.779Z,98000.69
2022-09-20T09:18:52.163Z,97991.38
2022-09-20T09:20:53.466Z,97996.50
2022-09-20T09:22:54.751Z,98000.78
2022-09-20T09:24:56.038Z,98001.66
2022-09-20T09:26:57.746Z,98005.88
2022-09-20T09:29:00.083Z,98012.63
2022-09-20T09:31:01.409Z,98007.53
2022-09-20T09:33:03.201Z,98015.09
2022-09-20T09:35:05.065Z,98014.19
2022-09-20T09:37:06.325Z,98003.13
2022-09-20T09:39:07.643Z,98021.75
2022-09-20T09:41:08.967Z,98019.19
2022-09-20T09:43:10.238Z,98019.94
2022-09-20T09:45:11.637Z,98022.44
2022-09-20T09:47:13.357Z,98018.97
2022-09-20T09:49:15.574Z,98013.00
2022-09-20T09:51:17.086Z,98028.25
2022-09-20T09:53:18.491Z,98023.97
2022-09-20T09:55:19.795Z,98024.03
2022-09-20T09:57:21.145Z,98018.97
2022-09-20T09:59:22.394Z,98020.69
2022-09-20T10:01:23.691Z,98011.28
2022-09-20T10:03:25.063Z,98008.66
2022-09-20T10:05:26.387Z,98012.81
2022-09-20T10:07:27.675Z,98009.31
2022-09-20T10:09:28.942Z,98017.00
2022-09-20T10:11:30.266Z,98012.81
2022-09-20T10:13:31.534Z,98015.44
2022-09-20T10:15:32.799Z,98023.06
2022-09-20T10:17:35.004Z,98019.69
2022-09-20T10:19:36.273Z,98016.94
2022-09-20T10:21:39.127Z,98010.78
2022-09-20T10:26:04.562Z,98019.34
2022-09-20T10:28:05.838Z,98017.00
2022-09-20T10:30:07.127Z,98015.47
2022-09-20T10:32:09.183Z,98024.94
2022-09-20T10:34:11.365Z,98020.69
2022-09-20T10:36:12.698Z,98020.78
2022-09-20T10:38:19.775Z,98026.78
2022-09-20T10:40:21.123Z,98022.63
2022-09-20T10:42:41.050Z,98031.19
2022-09-20T10:44:42.386Z,98028.50
2022-09-20T10:46:43.721Z,98019.84
2022-09-20T10:48:45.543Z,98028.47
2022-09-20T10:50:46.841Z,98032.72
2022-09-20T10:52:49.262Z,98029.38
2022-09-20T10:54:50.567Z,98025.19
2022-09-20T10:56:51.865Z,98034.53
2022-09-20T10:58:54.309Z,98035.38
2022-09-20T11:00:56.650Z,98032.84
2022-09-20T11:02:58.102Z,98038.84
2022-09-20T11:04:59.433Z,98029.56
2022-09-20T11:07:02.763Z,98045.72
2022-09-20T11:09:04.071Z,98033.88
2022-09-20T11:11:05.377Z,98036.47
2022-09-20T11:13:08.278Z,98042.50
2022-09-20T11:15:09.550Z,98039.13
2022-09-20T11:17:11.984Z,98040.88
2022-09-20T11:19:13.254Z,98039.22
2022-09-20T11:21:19.373Z,98039.22
2022-09-20T11:23:21.323Z,98043.47
2022-09-20T11:25:27.322Z,98043.38
2022-09-20T11:27:32.098Z,98036.53
2022-09-20T11:29:33.371Z,98046.63
2022-09-20T11:31:34.683Z,98044.03
2022-09-20T11:33:40.702Z,98044.78
2022-09-20T11:35:42.775Z,98037.94
2022-09-20T11:37:44.090Z,98033.66
2022-09-20T11:39:46.304Z,98041.22
2022-09-20T11:41:47.582Z,98042.78
2022-09-20T11:43:48.994Z,98033.25
2022-09-20T11:45:50.352Z,98034.97
2022-09-20T11:47:55.739Z,98035.84
2022-09-20T11:49:57.350Z,98040.28
2022-09-20T11:52:00.037Z,98038.75
2022-09-20T11:54:01.630Z,98028.63
2022-09-20T11:56:02.954Z,98033.81
2022-09-20T11:58:04.298Z,98038.88
2022-09-20T12:00:07.471Z,98052.47
2022-09-20T12:02:08.787Z,98050.88
2022-09-20T12:06:33.328Z,98044.25
2022-09-20T12:08:34.681Z,98040.88
2022-09-20T12:10:35.990Z,98041.66
2022-09-20T12:12:37.532Z,98038.22
2022-09-20T12:14:38.819Z,98046.63
2022-09-20T12:16:40.292Z,98042.25
2022-09-20T12:18:41.640Z,98037.84
2022-09-20T12:20:42.932Z,98042.84
2022-09-20T12:22:44.206Z,98044.44
2022-09-20T12:24:45.837Z,98038.31
2022-09-20T12:26:47.169Z,98042.00
2022-09-20T12:28:51.226Z,98039.38
2022-09-20T12:30:52.588Z,98035.63
2022-09-20T12:32:55.074Z,98035.41
2022-09-20T12:34:56.364Z,98039.69
2022-09-20T12:38:58.962Z,98038.25
2022-09-20T12:41:00.305Z,98033.47
2022-09-20T12:43:01.603Z,98031.63
2022-09-20T12:45:02.929Z,98034.03
2022-09-20T12:47:04.241Z,98035.53
2022-09-20T12:49:05.623Z,98027.28
2022-09-20T12:51:25.946Z,98040.38
2022-09-20T12:53:27.205Z,98051.81
2022-09-20T12:55:30.135Z,98043.94
2022-09-20T12:57:35.630Z,98046.59
2022-09-20T12:59:36.898Z,98040.91
2022-09-20T13:01:38.861Z,98040.44
2022-09-20T13:03:40.171Z,98037.69
2022-09-20T13:05:41.576Z,98037.53
2022-09-20T13:07:44.089Z,98024.53
2022-09-20T13:09:45.581Z,98035.44
2022-09-20T13:11:46.858Z,98034.72
2022-09-20T13:13:48.126Z,98042.41
2022-09-20T13:15:50.319Z,98042.75
2022-09-20T13:17:52.118Z,98041.44
2022-09-20T13:19:53.606Z,98048.78
2022-09-20T13:21:54.922Z,98046.09
2022-09-20T13:23:56.428Z,98050.00
2022-09-20T13:25:58.198Z,98041.97
2022-09-20T13:27:59.530Z,98038.03
2022-09-20T13:30:00.807Z,98042.41
2022-09-20T13:32:02.115Z,98041.66
2022-09-20T13:34:03.405Z,98046.84
2022-09-20T13:36:04.678Z,98041.03
2022-09-20T13:38:07.338Z,98049.59
2022-09-20T13:40:09.949Z,98042.91
2022-09-20T13:42:11.514Z,98051.44
2022-09-20T13:44:12.797Z,98043.56
2022-09-20T13:46:14.199Z,98045.28
2022-09-20T13:48:15.576Z,98053.41
2022-09-20T13:50:17.898Z,98049.91
2022-09-20T13:52:19.177Z,98054.84
2022-09-20T13:54:22.075Z,98049.53
2022-09-20T13:56:23.359Z,98063.84
2022-09-20T13:58:24.851Z,98060.41
2022-09-20T14:00:26.259Z,98066.47
2022-09-20T14:02:27.570Z,98076.78
2022-09-20T14:04:28.898Z,98086.38
2022-09-20T14:06:30.161Z,98099.34
2022-09-20T14:08:31.479Z,98106.31
2022-09-20T14:10:32.806Z,98101.31
2022-09-20T14:12:34.093Z,98098.03
2022-09-20T14:14:36.379Z,98099.78
2022-09-20T14:16:37.689Z,98107.41
2022-09-20T14:18:38.996Z,98099.59
2022-09-20T14:20:41.305Z,98101.38
2022-09-20T14:22:42.866Z,98105.81
2022-09-20T14:24:44.143Z,98103.31
2022-09-20T14:26:46.059Z,98109.28
2022-09-20T14:28:47.387Z,98104.91
2022-09-20T14:30:48.845Z,98105.03
2022-09-20T14:32:50.242Z,98104.38
2022-09-20T14:34:51.659Z,98096.88
2022-09-20T14:36:52.937Z,98112.38
2022-09-20T14:38:54.226Z,98092.91
2022-09-20T14:40:56.761Z,98103.25
2022-09-20T14:42:58.124Z,98106.75
2022-09-20T14:44:59.459Z,98104.22
2022-09-20T14:47:00.766Z,98107.53
2022-09-20T14:49:02.037Z,98106.19
2022-09-20T14:51:03.366Z,98104.09
2022-09-20T14:53:04.796Z,98108.72
2022-09-20T14:55:06.075Z,98114.50
2022-09-20T14:57:07.345Z,98125.06
2022-09-20T14:59:08.659Z,98121.38
2022-09-20T15:01:09.995Z,98116.78
2022-09-20T15:03:12.127Z,98106.63
2022-09-20T15:05:13.415Z,98105.78
2022-09-20T15:07:14.705Z,98114.25
2022-09-20T15:09:16.769Z,98111.84
2022-09-20T15:11:18.026Z,98118.53
2022-09-20T15:13:19.361Z,98124.56
2022-09-20T15:15:20.743Z,98129.69
2022-09-20T15:17:22.200Z,98124.00
2022-09-20T15:19:23.676Z,98129.19
2022-09-20T15:21:25.014Z,98134.38
2022-09-20T15:23:26.322Z,98137.78
2022-09-20T15:25:29.950Z,98136.16
2022-09-20T15:27:31.546Z,98131.16
2022-09-20T15:29:32.842Z,98137.72
2022-09-20T15:31:34.228Z,98140.50
2022-09-20T15:33:35.519Z,98140.53
2022-09-20T15:35:36.846Z,98138.47
2022-09-20T15:37:38.156Z,98139.59
2022-09-20T15:39:39.450Z,98141.47
2022-09-20T15:41:40.890Z,98139.00
2022-09-20T15:43:43.375Z,98133.06
2022-09-20T15:45:49.480Z,98133.06
2022-09-20T15:47:50.781Z,98135.66
2022-09-20T15:49:52.734Z,98129.69
2022-09-20T15:51:54.020Z,98126.28
2022-09-20T15:53:55.357Z,98134.84
2022-09-20T15:55:56.627Z,98139.13
2022-09-20T15:57:57.966Z,98140.00
2022-09-20T15:59:59.526Z,98143.47
2022-09-20T16:02:00.855Z,98139.28
2022-09-20T16:04:02.213Z,98141.97
2022-09-20T16:06:04.736Z,98144.56
2022-09-20T16:08:06.244Z,98141.22
2022-09-20T16:10:07.522Z,98140.34
2022-09-20T16:12:09.319Z,98138.66
2022-09-20T16:14:10.707Z,98141.22
2022-09-20T16:16:16.012Z,98142.88
2022-09-20T16:18:35.866Z,98152.25
2022-09-20T16:20:37.149Z,98151.44
2022-09-20T16:22:38.425Z,98159.03
2022-09-20T16:24:39.903Z,98152.25
2022-09-20T16:26:41.277Z,98163.69
2022-09-20T16:28:47.077Z,98161.50
2022-09-20T16:30:49.327Z,98169.84
2022-09-20T16:32:50.922Z,98164.91
2022-09-20T16:34:54.778Z,98174.28
2022-09-20T16:36:57.838Z,98175.09
2022-09-20T16:38:59.578Z,98179.22
2022-09-20T16:41:01.795Z,98176.59
2022-09-20T16:43:03.091Z,98181.44
2022-09-20T16:45:04.463Z,98180.06
2022-09-20T16:47:07.994Z,98179.84
2022-09-20T16:49:09.487Z,98179.69
2022-09-20T16:51:11.125Z,98173.09
2022-09-20T16:53:12.390Z,98177.66
2022-09-20T16:55:13.691Z,98182.03
2022-09-20T16:57:15.621Z,98183.94
2022-09-20T16:59:16.914Z,98181.53
2022-09-20T17:01:18.290Z,98175.00
2022-09-20T17:03:20.247Z,98170.91
2022-09-20T17:05:21.519Z,98182.03
2022-09-20T17:07:23.575Z,98180.41
2022-09-20T17:09:24.902Z,98178.69
2022-09-20T17:11:26.221Z,98186.44
2022-09-20T17:13:27.555Z,98187.03
2022-09-20T17:15:28.821Z,98190.81
2022-09-20T17:17:30.095Z,98185.09
2022-09-20T17:19:31.393Z,98194.13
2022-09-20T17:21:32.667Z,98192.63
2022-09-20T17:23:34.018Z,98202.94
2022-09-20T17:25:35.294Z,98190.38
2022-09-20T17:27:39.650Z,98195.06
2022-09-20T17:29:40.975Z,98192.84
2022-09-20T17:31:42.423Z,98197.25
2022-09-20T17:33:44.953Z,98201.66
2022-09-20T17:35:46.255Z,98201.38
2022-09-20T17:37:47.838Z,98195.59
2022-09-20T17:39:50.323Z,98202.38
2022-09-20T17:41:51.665Z,98209.84
2022-09-20T17:43:53.095Z,98213.66
2022-09-20T17:45:55.450Z,98204.81
2022-09-20T17:47:57.554Z,98221.75
2022-09-20T17:49:58.833Z,98221.13
2022-09-20T17:52:00.147Z,98218.75
2022-09-20T17:54:01.443Z,98223.06
2022-09-20T17:56:02.774Z,98223.28
2022-09-20T17:58:04.038Z,98225.97
2022-09-20T18:00:05.357Z,98231.16
2022-09-20T18:02:06.632Z,98223.47
2022-09-20T18:04:07.940Z,98230.72
2022-09-20T18:06:09.281Z,98235.63
2022-09-20T18:08:10.605Z,98239.41
2022-09-20T18:10:15.622Z,98243.88
2022-09-20T18:12:20.848Z,98242.28
2022-09-20T18:14:23.237Z,98249.16
2022-09-20T18:16:24.595Z,98245.78
2022-09-20T18:18:25.938Z,98250.94
2022-09-20T18:20:27.219Z,98243.31
2022-09-20T18:22:28.605Z,98251.88
2022-09-20T18:24:29.879Z,98256.22
2022-09-20T18:26:32.295Z,98259.66
2022-09-20T18:28:34.703Z,98250.34
2022-09-20T18:30:35.989Z,98128.59
2022-09-20T18:32:37.268Z,98262.44
2022-09-20T18:34:39.075Z,98267.56
2022-09-20T18:36:40.402Z,98259.63
2022-09-20T18:38:41.905Z,98263.88
2022-09-20T18:40:43.936Z,98260.06
2022-09-20T18:42:45.203Z,98262.16
2022-09-20T18:44:46.491Z,98258.03
2022-09-20T18:46:47.838Z,98268.63
2022-09-20T18:48:49.148Z,98278.88
2022-09-20T18:50:50.422Z,98277.78
2022-09-20T18:52:51.955Z,98282.84
2022-09-20T18:54:55.948Z,98287.84
2022-09-20T18:56:57.248Z,98290.34
2022-09-20T18:58:59.724Z,98281.59
2022-09-20T19:01:01.168Z,98295.66
2022-09-20T19:03:09.981Z,98293.28
2022-09-20T19:05:11.987Z,98282.84
2022-09-20T19:07:13.389Z,98290.78
2022-09-20T19:09:14.902Z,98291.13
2022-09-20T19:11:16.570Z,98298.03
2022-09-20T19:13:17.842Z,98298.81
2022-09-20T19:15:19.875Z,98299.00
2022-09-20T19:17:22.939Z,98300.81
2022-09-20T19:19:24.474Z,98302.53
2022-09-20T19:21:25.766Z,98310.91
2022-09-20T19:23:27.071Z,98307.63
2022-09-20T19:25:29.374Z,98313.53
2022-09-20T19:27:31.729Z,98309.97
2022-09-20T19:29:33.268Z,98312.00
2022-09-20T19:31:34.617Z,98311.84
2022-09-20T19:33:35.976Z,98312.28
2022-09-20T19:35:39.519Z,98319.28
2022-09-20T19:37:40.799Z,98323.59
2022-09-20T19:39:42.074Z,98327.97
2022-09-20T19:41:44.807Z,98322.91
2022-09-20T19:43:46.138Z,98323.75
2022-09-20T19:45:47.571Z,98326.50
2022-09-20T19:47:49.176Z,98322.69
2022-09-20T19:49:50.484Z,98333.38
2022-09-20T19:51:51.803Z,98321.78
2022-09-20T19:53:55.352Z,98330.94
2022-09-20T19:55:56.704Z,98193.66
2022-09-20T19:57:58.445Z,98348.84
2022-09-20T19:59:59.770Z,98329.31
2022-09-20T20:02:01.100Z,98333.66
2022-09-20T20:04:03.791Z,98332.00
2022-09-20T20:06:08.033Z,98335.47
2022-09-20T20:08:10.040Z,98337.28
2022-09-20T20:10:11.321Z,98345.84
2022-09-20T20:12:14.839Z,98345.97
2022-09-20T20:14:16.145Z,98346.94
2022-09-20T20:16:17.428Z,98343.59
2022-09-20T20:18:18.707Z,98355.63
2022-09-20T20:20:20.235Z,98353.06
2022-09-20T20:22:21.527Z,98358.28
2022-09-20T20:24:22.846Z,98362.59
2022-09-20T20:26:24.129Z,98362.63
2022-09-20T20:28:25.435Z,98361.03
2022-09-20T20:30:26.716Z,98365.28
2022-09-20T20:32:27.998Z,98363.66
2022-09-20T20:34:30.174Z,98361.13
2022-09-20T20:36:31.442Z,98361.97
2022-09-20T20:38:37.252Z,98373.06
2022-09-20T20:40:38.578Z,98372.13
2022-09-20T20:42:40.223Z,98367.06
2022-09-20T20:44:42.077Z,98373.09
2022-09-20T20:46:43.435Z,98374.94
2022-09-20T20:48:44.733Z,98382.69
2022-09-20T20:50:46.035Z,98376.72
2022-09-20T20:52:47.331Z,98385.25
2022-09-20T20:54:49.204Z,98390.44
2022-09-20T20:56:50.477Z,98387.91
2022-09-20T20:58:52.650Z,98390.50
2022-09-20T21:00:53.905Z,98386.25
2022-09-20T21:02:55.283Z,98385.44
2022-09-20T21:04:56.570Z,98387.97
2022-09-20T21:06:59.252Z,98385.38
2022-09-20T21:09:00.602Z,98390.47
2022-09-20T21:11:02.351Z,98392.22
2022-09-20T21:13:03.960Z,98391.38
2022-09-20T21:15:05.234Z,98393.09
2022-09-20T21:17:06.568Z,98389.75
2022-09-20T21:19:09.515Z,98389.75
2022-09-20T21:21:10.827Z,98390.63
2022-09-20T21:23:12.126Z,98393.16
2022-09-20T21:25:13.418Z,98390.63
2022-09-20T21:27:15.735Z,98399.19
2022-09-20T21:29:17.050Z,98415.41
2022-09-20T21:31:18.602Z,98399.28
2022-09-20T21:33:19.903Z,98395.09
2022-09-20T21:35:23.963Z,98401.91
2022-09-20T21:37:25.261Z,98389.22
2022-09-20T21:39:26.533Z,98396.88
2022-09-20T21:41:29.388Z,98407.97
2022-09-20T21:43:30.728Z,98403.72
2022-09-20T21:45:31.994Z,98400.34
2022-09-20T21:47:33.306Z,98410.56
2022-09-20T21:49:34.583Z,98411.44
2022-09-20T21:51:35.887Z,98417.38
2022-09-20T21:53:37.164Z,98411.50
2022-09-20T21:55:38.508Z,98418.28
2022-09-20T21:57:39.823Z,98414.94
2022-09-20T21:59:41.584Z,98424.25
2022-09-20T22:01:43.004Z,98417.44
2022-09-20T22:03:44.326Z,98422.53
2022-09-20T22:05:45.586Z,98417.47
2022-09-20T22:07:46.875Z,98416.63
2022-09-20T22:09:48.398Z,98422.59
2022-09-20T22:11:49.718Z,98412.34
2022-09-20T22:13:51.403Z,98419.09
2022-09-20T22:15:52.783Z,98420.00
2022-09-20T22:17:54.095Z,98419.16
2022-09-20T22:19:55.489Z,98423.41
2022-09-20T22:21:56.757Z,98420.03
2022-09-20T22:23:58.101Z,98426.03
2022-09-20T22:25:59.653Z,98421.78
2022-09-20T22:28:00.909Z,98421.81
2022-09-20T22:30:04.916Z,98423.50
2022-09-20T22:32:06.898Z,98424.34
2022-09-20T22:34:08.246Z,98419.28
2022-09-20T22:36:09.580Z,98421.00
2022-09-20T22:38:11.025Z,98430.34
2022-09-20T22:40:12.320Z,98426.94
2022-09-20T22:42:13.621Z,98427.81
2022-09-20T22:44:15.006Z,98425.28
2022-09-20T22:46:16.360Z,98423.63
2022-09-20T22:48:17.670Z,98421.91
2022-09-20T22:50:18.938Z,98421.88
2022-09-20T22:52:20.249Z,98426.13
2022-09-20T22:54:21.547Z,98423.56
2022-09-20T22:56:22.831Z,98431.22
2022-09-20T22:58:24.271Z,98423.34
2022-09-20T23:00:25.807Z,98425.09
2022-09-20T23:02:27.078Z,98426.91
2022-09-20T23:04:28.594Z,98423.53
2022-09-20T23:06:30.082Z,98431.19
2022-09-20T23:08:32.001Z,98432.09
2022-09-20T23:10:33.282Z,98427.00
2022-09-20T23:12:34.558Z,98428.69
2022-09-20T23:14:35.846Z,98427.84
2022-09-20T23:16:37.196Z,98431.25
2022-09-20T23:18:38.555Z,98426.13
2022-09-20T23:20:39.833Z,98428.66
2022-09-20T23:22:41.163Z,98432.88
2022-09-20T23:24:42.519Z,98431.19
2022-09-20T23:26:44.026Z,98429.38
2022-09-20T23:28:45.335Z,98429.34
2022-09-20T23:30:46.726Z,98318.00
2022-09-20T23:32:48.109Z,98427.66
2022-09-20T23:34:49.857Z,98429.34
2022-09-20T23:36:51.342Z,98425.97
2022-09-20T23:38:52.609Z,98426.84
2022-09-20T23:40:54.334Z,98426.03
2022-09-20T23:42:55.646Z,98427.72
2022-09-20T23:44:56.910Z,98434.50
2022-09-20T23:48:59.501Z,98429.38
2022-09-20T23:51:00.786Z,98431.13
2022-09-20T23:53:02.075Z,98435.41
2022-09-20T23:55:03.343Z,98428.66
2022-09-20T23:57:04.614Z,98438.03
2022-09-20T23:59:05.909Z,98430.38
